createdAt,value
2018-01-18T00:00:51.423Z,-1.11
2018-01-18T00:01:51.398Z,-1.1
2018-01-18T00:02:51.378Z,-1.19
2018-01-18T00:03:51.152Z,-1.21
2018-01-18T00:04:51.072Z,-1.21
2018-01-18T00:05:51.050Z,-1.35
2018-01-18T00:06:51.305Z,-1.28
2018-01-18T00:07:51.574Z,-1.27
2018-01-18T00:08:51.266Z,-1.38
2018-01-18T00:09:51.249Z,-1.31
2018-01-18T00:10:50.954Z,-1.31
2018-01-18T00:11:50.940Z,-1.34
2018-01-18T00:12:51.456Z,-1.37
2018-01-18T00:13:50.912Z,-1.38
2018-01-18T00:14:50.878Z,-1.24
2018-01-18T00:15:51.132Z,-1.31
2018-01-18T00:16:51.393Z,-1.38
2018-01-18T00:17:51.093Z,-1.35
2018-01-18T00:18:50.803Z,-1.37
2018-01-18T00:19:51.054Z,-1.34
2018-01-18T00:20:50.780Z,-1.3
2018-01-18T00:21:51.016Z,-1.3
2018-01-18T00:22:50.739Z,-1.34
2018-01-18T00:23:50.975Z,-1.27
2018-01-18T00:24:50.962Z,-1.28
2018-01-18T00:25:50.966Z,-1.24
2018-01-18T00:26:50.942Z,-1.21
2018-01-18T00:27:50.628Z,-1.19
2018-01-18T00:28:50.879Z,-1.19
2018-01-18T00:29:50.866Z,-1.14
2018-01-18T00:30:50.849Z,-1.04
2018-01-18T00:31:50.837Z,-0.99
2018-01-18T00:32:50.821Z,-0.93
2018-01-18T00:33:50.513Z,-0.98
2018-01-18T00:34:50.763Z,-0.85
2018-01-18T00:35:50.473Z,-0.84
2018-01-18T00:36:50.462Z,-0.82
2018-01-18T00:37:50.454Z,-0.8
2018-01-18T00:38:50.436Z,-0.79
2018-01-18T00:39:50.684Z,-0.77
2018-01-18T00:40:50.377Z,-0.69
2018-01-18T00:41:50.650Z,-0.69
2018-01-18T00:42:50.886Z,-0.64
2018-01-18T00:43:50.319Z,-0.64
2018-01-18T00:44:50.574Z,-0.59
2018-01-18T00:45:50.302Z,-0.64
2018-01-18T00:46:50.533Z,-0.62
2018-01-18T00:47:50.523Z,-0.64
2018-01-18T00:48:50.227Z,-0.55
2018-01-18T00:49:50.790Z,-0.56
2018-01-18T00:50:50.186Z,-0.64
2018-01-18T00:51:50.168Z,-0.52
2018-01-18T00:52:50.443Z,-0.61
2018-01-18T00:53:50.400Z,-0.62
2018-01-18T00:54:50.115Z,-0.54
2018-01-18T00:55:50.382Z,-0.59
2018-01-18T00:56:50.363Z,-0.51
2018-01-18T00:57:50.337Z,-0.51
2018-01-18T00:58:50.034Z,-0.49
2018-01-18T00:59:50.016Z,-0.52
2018-01-18T01:00:50.269Z,-0.49
2018-01-18T01:01:49.977Z,-0.48
2018-01-18T01:02:49.960Z,-0.46
2018-01-18T01:03:50.209Z,-0.45
2018-01-18T01:04:50.268Z,-0.51
2018-01-18T01:05:49.905Z,-0.54
2018-01-18T01:06:49.881Z,-0.4
2018-01-18T01:07:50.135Z,-0.38
2018-01-18T01:08:50.126Z,-0.48
2018-01-18T01:09:50.365Z,-0.48
2018-01-18T01:10:50.077Z,-0.33
2018-01-18T01:11:49.806Z,-0.4
2018-01-18T01:12:50.040Z,-0.36
2018-01-18T01:13:50.022Z,-0.43
2018-01-18T01:14:50.000Z,-0.4
2018-01-18T01:15:49.978Z,-0.38
2018-01-18T01:16:49.691Z,-0.45
2018-01-18T01:17:49.951Z,-0.41
2018-01-18T01:18:49.686Z,-0.36
2018-01-18T01:19:49.634Z,-0.36
2018-01-18T01:20:50.158Z,-0.4
2018-01-18T01:21:49.876Z,-0.34
2018-01-18T01:22:49.614Z,-0.36
2018-01-18T01:23:49.828Z,-0.33
2018-01-18T01:24:49.538Z,-0.33
2018-01-18T01:25:49.822Z,-0.27
2018-01-18T01:26:50.041Z,-0.28
2018-01-18T01:27:49.752Z,-0.28
2018-01-18T01:28:49.735Z,-0.28
2018-01-18T01:29:49.448Z,-0.33
2018-01-18T01:30:49.425Z,-0.34
2018-01-18T01:31:49.404Z,-0.31
2018-01-18T01:32:49.394Z,-0.3
2018-01-18T01:33:49.374Z,-0.3
2018-01-18T01:34:49.895Z,-0.31
2018-01-18T01:35:49.602Z,-0.22
2018-01-18T01:36:49.605Z,-0.23
2018-01-18T01:37:49.292Z,-0.31
2018-01-18T01:38:49.276Z,-0.25
2018-01-18T01:39:49.258Z,-0.2
2018-01-18T01:40:49.234Z,-0.23
2018-01-18T01:41:49.485Z,-0.2
2018-01-18T01:42:49.197Z,-0.2
2018-01-18T01:43:49.181Z,-0.15
2018-01-18T01:44:49.160Z,-0.22
2018-01-18T01:45:49.142Z,-0.27
2018-01-18T01:46:49.394Z,-0.16
2018-01-18T01:47:49.102Z,-0.25
2018-01-18T01:48:49.362Z,-0.22
2018-01-18T01:49:49.066Z,-0.2
2018-01-18T01:50:49.049Z,-0.22
2018-01-18T01:51:49.568Z,-0.15
2018-01-18T01:52:49.292Z,-0.1
2018-01-18T01:53:49.035Z,-0.12
2018-01-18T01:54:48.970Z,-0.12
2018-01-18T01:55:48.952Z,-0.1
2018-01-18T01:56:48.933Z,-0.15
2018-01-18T01:57:48.914Z,-0.13
2018-01-18T01:58:49.164Z,-0.16
2018-01-18T01:59:49.147Z,-0.19
2018-01-18T02:00:49.139Z,-0.12
2018-01-18T02:01:49.118Z,-0.15
2018-01-18T02:02:49.092Z,-0.1
2018-01-18T02:03:49.076Z,-0.13
2018-01-18T02:04:49.054Z,-0.13
2018-01-18T02:05:49.311Z,-0.13
2018-01-18T02:06:49.015Z,-0.09
2018-01-18T02:07:48.996Z,-0.16
2018-01-18T02:08:48.977Z,-0.15
2018-01-18T02:09:48.977Z,-0.12
2018-01-18T02:10:48.942Z,-0.09
2018-01-18T02:11:48.667Z,-0.09
2018-01-18T02:12:48.902Z,-0.19
2018-01-18T02:13:48.613Z,-0.12
2018-01-18T02:14:48.592Z,-0.09
2018-01-18T02:15:48.577Z,-0.09
2018-01-18T02:16:48.561Z,-0.16
2018-01-18T02:17:48.806Z,-0.13
2018-01-18T02:18:48.790Z,-0.09
2018-01-18T02:19:48.525Z,-0.04
2018-01-18T02:20:48.482Z,-0.12
2018-01-18T02:21:48.737Z,-0.09
2018-01-18T02:22:48.989Z,-0.1
2018-01-18T02:23:48.696Z,-0.04
2018-01-18T02:24:48.407Z,-0.12
2018-01-18T02:25:48.934Z,-0.04
2018-01-18T02:26:48.387Z,0.02
2018-01-18T02:27:48.618Z,-0.01
2018-01-18T02:28:48.614Z,0.02
2018-01-18T02:29:48.597Z,0.01
2018-01-18T02:30:48.295Z,-0.02
2018-01-18T02:31:48.550Z,-0.07
2018-01-18T02:32:48.256Z,0.02
2018-01-18T02:33:48.239Z,0.03
2018-01-18T02:34:48.221Z,0.01
2018-01-18T02:35:48.208Z,0.01
2018-01-18T02:36:48.459Z,-0.04
2018-01-18T02:37:48.444Z,-0.01
2018-01-18T02:38:48.157Z,0.06
2018-01-18T02:39:48.395Z,0.02
2018-01-18T02:40:48.139Z,0.09
2018-01-18T02:41:48.088Z,0.05
2018-01-18T02:42:48.068Z,0.13
2018-01-18T02:43:48.050Z,0.06
2018-01-18T02:44:48.327Z,0.1
2018-01-18T02:45:48.608Z,0.13
2018-01-18T02:46:48.002Z,0.1
2018-01-18T02:47:48.247Z,0.1
2018-01-18T02:48:48.546Z,0.03
2018-01-18T02:49:48.206Z,0.14
2018-01-18T02:50:48.190Z,0.1
2018-01-18T02:51:48.191Z,0.05
2018-01-18T02:52:47.881Z,0.1
2018-01-18T02:53:48.132Z,0.19
2018-01-18T02:54:48.123Z,0.17
2018-01-18T02:55:47.825Z,0.16
2018-01-18T02:56:47.822Z,0.17
2018-01-18T02:57:47.787Z,0.08
2018-01-18T02:58:47.770Z,-0.04
2018-01-18T02:59:48.046Z,0.13
2018-01-18T03:00:48.004Z,0.05
2018-01-18T03:01:47.985Z,0.16
2018-01-18T03:02:47.694Z,0.08
2018-01-18T03:03:47.693Z,0.1
2018-01-18T03:04:47.654Z,0.14
2018-01-18T03:05:47.638Z,0.16
2018-01-18T03:06:48.164Z,0.16
2018-01-18T03:07:47.600Z,0.08
2018-01-18T03:08:47.582Z,0.01
2018-01-18T03:09:47.565Z,0.13
2018-01-18T03:10:47.546Z,0.13
2018-01-18T03:11:47.800Z,0.09
2018-01-18T03:12:47.778Z,0.1
2018-01-18T03:13:47.490Z,0.1
2018-01-18T03:14:47.741Z,0.1
2018-01-18T03:15:47.732Z,0.09
2018-01-18T03:16:47.433Z,-0.01
2018-01-18T03:17:47.694Z,0.19
2018-01-18T03:18:47.396Z,0.14
2018-01-18T03:19:47.378Z,0.16
2018-01-18T03:20:47.638Z,0.13
2018-01-18T03:21:47.629Z,0.05
2018-01-18T03:22:47.328Z,0.01
2018-01-18T03:23:47.303Z,0.01
2018-01-18T03:24:47.572Z,0.01
2018-01-18T03:25:47.545Z,-0.01
2018-01-18T03:26:47.518Z,0.01
2018-01-18T03:27:47.506Z,0.01
2018-01-18T03:28:47.502Z,-0.01
2018-01-18T03:29:47.192Z,-0.04
2018-01-18T03:30:47.448Z,0.03
2018-01-18T03:31:47.432Z,0.03
2018-01-18T03:32:47.151Z,-0.01
2018-01-18T03:33:47.117Z,0.06
2018-01-18T03:34:47.100Z,0.02
2018-01-18T03:35:47.099Z,-0.05
2018-01-18T03:36:47.339Z,-0.02
2018-01-18T03:37:47.588Z,-0.01
2018-01-18T03:38:47.022Z,0.03
2018-01-18T03:39:47.016Z,0.02
2018-01-18T03:40:46.987Z,-0.01
2018-01-18T03:41:46.981Z,-0.04
2018-01-18T03:42:47.223Z,-0.04
2018-01-18T03:43:47.202Z,-0.04
2018-01-18T03:44:47.192Z,0.01
2018-01-18T03:45:47.186Z,-0.04
2018-01-18T03:46:46.874Z,-0.05
2018-01-18T03:47:47.407Z,0.03
2018-01-18T03:48:47.118Z,-0.01
2018-01-18T03:49:47.089Z,-0.02
2018-01-18T03:50:47.083Z,-0.02
2018-01-18T03:51:47.320Z,0.02
2018-01-18T03:52:46.775Z,0.01
2018-01-18T03:53:46.743Z,0.01
2018-01-18T03:54:47.014Z,-0.01
2018-01-18T03:55:46.976Z,0.03
2018-01-18T03:56:46.958Z,-0.02
2018-01-18T03:57:47.232Z,0.06
2018-01-18T03:58:46.922Z,0.03
2018-01-18T03:59:47.039Z,0.06
2018-01-18T04:00:47.153Z,0.06
2018-01-18T04:01:46.870Z,0.03
2018-01-18T04:02:46.575Z,0.09
2018-01-18T04:03:46.827Z,0.06
2018-01-18T04:04:46.554Z,0.1
2018-01-18T04:05:46.806Z,0.09
2018-01-18T04:06:46.500Z,0.1
2018-01-18T04:07:46.754Z,0.09
2018-01-18T04:08:46.462Z,0.13
2018-01-18T04:09:46.445Z,0.03
2018-01-18T04:10:46.696Z,0.06
2018-01-18T04:11:46.427Z,0.13
2018-01-18T04:12:46.950Z,0.13
2018-01-18T04:13:46.641Z,0.09
2018-01-18T04:14:46.622Z,0.09
2018-01-18T04:15:46.604Z,0.06
2018-01-18T04:16:46.629Z,0.17
2018-01-18T04:17:46.576Z,0.08
2018-01-18T04:18:46.567Z,0.09
2018-01-18T04:19:46.538Z,0.13
2018-01-18T04:20:46.254Z,0.13
2018-01-18T04:21:46.235Z,0.1
2018-01-18T04:22:46.489Z,0.1
2018-01-18T04:23:46.481Z,0.06
2018-01-18T04:24:46.437Z,0.02
2018-01-18T04:25:46.431Z,0.14
2018-01-18T04:26:46.401Z,0.17
2018-01-18T04:27:46.437Z,0.1
2018-01-18T04:28:46.088Z,0.19
2018-01-18T04:29:46.352Z,0.17
2018-01-18T04:30:46.598Z,0.13
2018-01-18T04:31:46.577Z,0.05
2018-01-18T04:32:46.555Z,0.17
2018-01-18T04:33:45.994Z,0.13
2018-01-18T04:34:45.979Z,0.06
2018-01-18T04:35:45.957Z,0.09
2018-01-18T04:36:45.940Z,0.1
2018-01-18T04:37:46.190Z,0.17
2018-01-18T04:38:46.187Z,0.03
2018-01-18T04:39:45.882Z,0.06
2018-01-18T04:40:45.885Z,0.14
2018-01-18T04:41:46.415Z,0.02
2018-01-18T04:42:45.829Z,0.05
2018-01-18T04:43:46.109Z,0.16
2018-01-18T04:44:45.791Z,0.1
2018-01-18T04:45:45.772Z,0.1
2018-01-18T04:46:46.088Z,0.14
2018-01-18T04:47:45.734Z,0.13
2018-01-18T04:48:46.000Z,0.09
2018-01-18T04:49:45.974Z,0.13
2018-01-18T04:50:45.678Z,0.06
2018-01-18T04:51:46.202Z,0.17
2018-01-18T04:52:45.917Z,0.19
2018-01-18T04:53:45.898Z,0.2
2018-01-18T04:54:45.612Z,0.17
2018-01-18T04:55:45.588Z,0.2
2018-01-18T04:56:45.840Z,0.13
2018-01-18T04:57:45.547Z,0.2
2018-01-18T04:58:46.070Z,0.17
2018-01-18T04:59:45.512Z,0.14
2018-01-18T05:00:45.776Z,0.21
2018-01-18T05:01:45.503Z,0.1
2018-01-18T05:02:45.727Z,0.2
2018-01-18T05:03:45.710Z,0.2
2018-01-18T05:04:45.429Z,0.23
2018-01-18T05:05:45.425Z,0.27
2018-01-18T05:06:45.925Z,0.31
2018-01-18T05:07:45.903Z,0.27
2018-01-18T05:08:45.341Z,0.28
2018-01-18T05:09:45.324Z,0.28
2018-01-18T05:10:45.851Z,0.31
2018-01-18T05:11:45.559Z,0.23
2018-01-18T05:12:45.277Z,0.27
2018-01-18T05:13:45.520Z,0.24
2018-01-18T05:14:45.502Z,0.24
2018-01-18T05:15:45.772Z,0.23
2018-01-18T05:16:45.198Z,0.24
2018-01-18T05:17:45.193Z,0.32
2018-01-18T05:18:45.701Z,0.35
2018-01-18T05:19:45.139Z,0.21
2018-01-18T05:20:45.141Z,0.28
2018-01-18T05:21:45.684Z,0.35
2018-01-18T05:22:45.355Z,0.27
2018-01-18T05:23:45.065Z,0.31
2018-01-18T05:24:45.045Z,0.38
2018-01-18T05:25:45.311Z,0.34
2018-01-18T05:26:45.011Z,0.39
2018-01-18T05:27:45.011Z,0.37
2018-01-18T05:28:44.987Z,0.35
2018-01-18T05:29:44.960Z,0.37
2018-01-18T05:30:44.936Z,0.44
2018-01-18T05:31:45.267Z,0.31
2018-01-18T05:32:44.900Z,0.31
2018-01-18T05:33:45.152Z,0.37
2018-01-18T05:34:45.183Z,0.31
2018-01-18T05:35:45.120Z,0.37
2018-01-18T05:36:45.101Z,0.37
2018-01-18T05:37:44.806Z,0.32
2018-01-18T05:38:45.078Z,0.34
2018-01-18T05:39:45.053Z,0.34
2018-01-18T05:40:44.754Z,0.31
2018-01-18T05:41:45.022Z,0.31
2018-01-18T05:42:44.713Z,0.34
2018-01-18T05:43:44.967Z,0.37
2018-01-18T05:44:44.966Z,0.38
2018-01-18T05:45:44.679Z,0.31
2018-01-18T05:46:44.919Z,0.32
2018-01-18T05:47:44.894Z,0.32
2018-01-18T05:48:44.873Z,0.26
2018-01-18T05:49:44.855Z,0.31
2018-01-18T05:50:44.568Z,0.23
2018-01-18T05:51:44.554Z,0.24
2018-01-18T05:52:44.823Z,0.24
2018-01-18T05:53:44.514Z,0.17
2018-01-18T05:54:44.494Z,0.27
2018-01-18T05:55:44.475Z,0.26
2018-01-18T05:56:44.470Z,0.24
2018-01-18T05:57:44.438Z,0.2
2018-01-18T05:58:44.466Z,0.34
2018-01-18T05:59:44.967Z,0.24
2018-01-18T06:00:44.393Z,0.21
2018-01-18T06:01:44.365Z,0.28
2018-01-18T06:02:44.887Z,0.35
2018-01-18T06:03:44.872Z,0.42
2018-01-18T06:04:44.613Z,0.45
2018-01-18T06:05:44.839Z,0.31
2018-01-18T06:06:44.557Z,0.34
2018-01-18T06:07:44.541Z,0.34
2018-01-18T06:08:44.508Z,0.31
2018-01-18T06:09:44.218Z,0.31
2018-01-18T06:10:44.740Z,0.47
2018-01-18T06:11:44.180Z,0.42
2018-01-18T06:12:44.163Z,0.37
2018-01-18T06:13:44.143Z,0.31
2018-01-18T06:14:44.406Z,0.31
2018-01-18T06:15:44.647Z,0.32
2018-01-18T06:16:44.088Z,0.38
2018-01-18T06:17:44.345Z,0.28
2018-01-18T06:18:44.321Z,0.32
2018-01-18T06:19:44.321Z,0.27
2018-01-18T06:20:44.017Z,0.21
2018-01-18T06:21:44.537Z,0.26
2018-01-18T06:22:44.253Z,0.24
2018-01-18T06:23:44.229Z,0.32
2018-01-18T06:24:43.949Z,0.24
2018-01-18T06:25:44.193Z,0.32
2018-01-18T06:26:43.902Z,0.21
2018-01-18T06:27:43.885Z,0.24
2018-01-18T06:28:43.871Z,0.35
2018-01-18T06:29:44.115Z,0.21
2018-01-18T06:30:43.830Z,0.27
2018-01-18T06:31:44.100Z,0.23
2018-01-18T06:32:43.803Z,0.27
2018-01-18T06:33:43.774Z,0.31
2018-01-18T06:34:44.026Z,0.35
2018-01-18T06:35:44.015Z,0.32
2018-01-18T06:36:43.989Z,0.35
2018-01-18T06:37:43.699Z,0.28
2018-01-18T06:38:43.955Z,0.32
2018-01-18T06:39:44.238Z,0.37
2018-01-18T06:40:43.645Z,0.45
2018-01-18T06:41:44.173Z,0.39
2018-01-18T06:42:43.899Z,0.35
2018-01-18T06:43:43.893Z,0.42
2018-01-18T06:44:43.574Z,0.45
2018-01-18T06:45:44.093Z,0.44
2018-01-18T06:46:43.534Z,0.44
2018-01-18T06:47:43.840Z,0.31
2018-01-18T06:48:43.496Z,0.37
2018-01-18T06:49:44.043Z,0.35
2018-01-18T06:50:43.461Z,0.44
2018-01-18T06:51:43.442Z,0.37
2018-01-18T06:52:43.702Z,0.37
2018-01-18T06:53:43.419Z,0.37
2018-01-18T06:54:43.929Z,0.35
2018-01-18T06:55:43.640Z,0.39
2018-01-18T06:56:43.350Z,0.38
2018-01-18T06:57:43.604Z,0.38
2018-01-18T06:58:43.314Z,0.41
2018-01-18T06:59:43.834Z,0.42
2018-01-18T07:00:43.277Z,0.42
2018-01-18T07:01:43.259Z,0.41
2018-01-18T07:02:43.511Z,0.39
2018-01-18T07:03:43.238Z,0.48
2018-01-18T07:04:43.744Z,0.41
2018-01-18T07:05:43.184Z,0.44
2018-01-18T07:06:43.172Z,0.41
2018-01-18T07:07:43.154Z,0.57
2018-01-18T07:08:43.133Z,0.57
2018-01-18T07:09:43.383Z,0.52
2018-01-18T07:10:43.102Z,0.48
2018-01-18T07:11:43.075Z,0.52
2018-01-18T07:12:43.342Z,0.52
2018-01-18T07:13:43.035Z,0.5
2018-01-18T07:14:43.298Z,0.5
2018-01-18T07:15:43.003Z,0.64
2018-01-18T07:16:43.523Z,0.61
2018-01-18T07:17:43.254Z,0.63
2018-01-18T07:18:43.278Z,0.66
2018-01-18T07:19:42.925Z,0.66
2018-01-18T07:20:43.179Z,0.64
2018-01-18T07:21:43.160Z,0.66
2018-01-18T07:22:43.420Z,0.6
2018-01-18T07:23:43.122Z,0.75
2018-01-18T07:24:43.128Z,0.78
2018-01-18T07:25:43.088Z,0.78
2018-01-18T07:26:42.799Z,0.71
2018-01-18T07:27:43.326Z,0.76
2018-01-18T07:28:43.307Z,0.76
2018-01-18T07:29:42.763Z,0.69
2018-01-18T07:30:43.019Z,0.76
2018-01-18T07:31:42.727Z,0.79
2018-01-18T07:32:43.230Z,0.75
2018-01-18T07:33:42.943Z,0.69
2018-01-18T07:34:42.653Z,0.81
2018-01-18T07:35:42.655Z,0.79
2018-01-18T07:36:42.615Z,0.76
2018-01-18T07:37:42.872Z,0.81
2018-01-18T07:38:42.873Z,0.79
2018-01-18T07:39:42.831Z,0.81
2018-01-18T07:40:42.545Z,0.84
2018-01-18T07:41:42.794Z,0.81
2018-01-18T07:42:42.506Z,0.81
2018-01-18T07:43:42.759Z,0.84
2018-01-18T07:44:42.761Z,0.78
2018-01-18T07:45:42.450Z,0.79
2018-01-18T07:46:42.707Z,0.81
2018-01-18T07:47:42.415Z,0.81
2018-01-18T07:48:42.940Z,0.84
2018-01-18T07:49:42.647Z,0.84
2018-01-18T07:50:42.360Z,0.85
2018-01-18T07:51:42.887Z,0.85
2018-01-18T07:52:42.596Z,0.82
2018-01-18T07:53:42.306Z,0.79
2018-01-18T07:54:42.579Z,0.85
2018-01-18T07:55:42.539Z,0.89
2018-01-18T07:56:42.251Z,0.89
2018-01-18T07:57:42.233Z,0.82
2018-01-18T07:58:42.233Z,0.84
2018-01-18T07:59:42.485Z,0.92
2018-01-18T08:00:42.177Z,0.86
2018-01-18T08:01:42.160Z,0.85
2018-01-18T08:02:42.142Z,0.86
2018-01-18T08:03:42.135Z,0.86
2018-01-18T08:04:42.375Z,0.93
2018-01-18T08:05:42.088Z,0.9
2018-01-18T08:06:42.067Z,0.9
2018-01-18T08:07:42.344Z,0.93
2018-01-18T08:08:42.032Z,0.84
2018-01-18T08:09:42.023Z,0.82
2018-01-18T08:10:41.996Z,0.94
2018-01-18T08:11:42.273Z,0.82
2018-01-18T08:12:42.520Z,0.82
2018-01-18T08:13:42.487Z,0.9
2018-01-18T08:14:42.195Z,0.92
2018-01-18T08:15:42.176Z,0.89
2018-01-18T08:16:41.907Z,0.97
2018-01-18T08:17:42.201Z,0.93
2018-01-18T08:18:42.122Z,0.94
2018-01-18T08:19:41.833Z,0.96
2018-01-18T08:20:42.092Z,0.93
2018-01-18T08:21:41.798Z,0.94
2018-01-18T08:22:41.776Z,0.97
2018-01-18T08:23:42.300Z,0.96
2018-01-18T08:24:41.743Z,1.08
2018-01-18T08:25:41.999Z,1.04
2018-01-18T08:26:41.721Z,1.08
2018-01-18T08:27:41.686Z,0.99
2018-01-18T08:28:41.939Z,1.08
2018-01-18T08:29:41.921Z,1.03
2018-01-18T08:30:41.641Z,1.08
2018-01-18T08:31:41.886Z,1.07
2018-01-18T08:32:43.023Z,1.11
2018-01-18T08:33:41.852Z,1.12
2018-01-18T08:34:41.830Z,1.07
2018-01-18T08:35:41.589Z,1.08
2018-01-18T08:36:41.796Z,1.15
2018-01-18T08:37:41.785Z,1.17
2018-01-18T08:38:41.765Z,1.18
2018-01-18T08:39:41.470Z,1.24
2018-01-18T08:40:41.720Z,1.32
2018-01-18T08:41:41.434Z,1.33
2018-01-18T08:42:41.421Z,1.33
2018-01-18T08:43:41.690Z,1.4
2018-01-18T08:44:41.379Z,1.42
2018-01-18T08:45:41.362Z,1.39
2018-01-18T08:46:41.344Z,1.36
2018-01-18T08:47:41.345Z,1.46
2018-01-18T08:48:41.309Z,1.51
2018-01-18T08:49:41.845Z,1.5
2018-01-18T08:50:41.830Z,1.5
2018-01-18T08:51:41.266Z,1.46
2018-01-18T08:52:41.288Z,1.47
2018-01-18T08:53:41.507Z,1.44
2018-01-18T08:54:41.470Z,1.54
2018-01-18T08:55:41.182Z,1.48
2018-01-18T08:56:41.456Z,1.44
2018-01-18T08:57:41.438Z,1.42
2018-01-18T08:58:41.409Z,1.51
2018-01-18T08:59:41.114Z,1.5
2018-01-18T09:00:41.365Z,1.54
2018-01-18T09:01:41.077Z,1.56
2018-01-18T09:02:42.987Z,1.56
2018-01-18T09:03:41.314Z,1.58
2018-01-18T09:04:41.028Z,1.58
2018-01-18T09:05:41.006Z,1.6
2018-01-18T09:06:40.986Z,1.66
2018-01-18T09:07:41.251Z,1.61
2018-01-18T09:08:40.952Z,1.66
2018-01-18T09:09:40.935Z,1.78
2018-01-18T09:10:40.915Z,1.83
2018-01-18T09:11:41.182Z,1.84
2018-01-18T09:12:40.882Z,1.93
2018-01-18T09:13:41.139Z,2.04
2018-01-18T09:14:41.127Z,2.05
2018-01-18T09:15:41.101Z,2.09
2018-01-18T09:16:40.884Z,2.15
2018-01-18T09:17:40.809Z,2.05
2018-01-18T09:18:41.046Z,2.05
2018-01-18T09:19:41.034Z,2.08
2018-01-18T09:20:40.741Z,2.06
2018-01-18T09:21:40.995Z,2.12
2018-01-18T09:22:40.979Z,2.11
2018-01-18T09:23:40.965Z,2.08
2018-01-18T09:24:40.943Z,2.2
2018-01-18T09:25:40.656Z,2.16
2018-01-18T09:26:41.180Z,2.26
2018-01-18T09:27:40.623Z,2.29
2018-01-18T09:28:40.603Z,2.3
2018-01-18T09:29:40.871Z,2.31
2018-01-18T09:30:40.570Z,2.33
2018-01-18T09:31:40.552Z,2.33
2018-01-18T09:32:40.828Z,2.36
2018-01-18T09:33:40.787Z,2.44
2018-01-18T09:34:40.503Z,2.36
2018-01-18T09:35:40.498Z,2.4
2018-01-18T09:36:41.035Z,2.34
2018-01-18T09:37:40.721Z,2.3
2018-01-18T09:38:40.433Z,2.3
2018-01-18T09:39:40.684Z,2.18
2018-01-18T09:40:40.668Z,2.23
2018-01-18T09:41:40.380Z,2.15
2018-01-18T09:42:40.364Z,2.2
2018-01-18T09:43:40.617Z,2.16
2018-01-18T09:44:40.328Z,2.15
2018-01-18T09:45:40.585Z,2.31
2018-01-18T09:46:40.293Z,2.26
2018-01-18T09:47:40.280Z,2.29
2018-01-18T09:48:40.535Z,2.29
2018-01-18T09:49:40.244Z,2.22
2018-01-18T09:50:40.512Z,2.22
2018-01-18T09:51:40.483Z,2.18
2018-01-18T09:52:40.201Z,2.16
2018-01-18T09:53:40.174Z,2.12
2018-01-18T09:54:40.700Z,2.11
2018-01-18T09:55:40.424Z,2.09
2018-01-18T09:56:40.392Z,2.04
2018-01-18T09:57:40.117Z,2.05
2018-01-18T09:58:40.088Z,2.11
2018-01-18T09:59:40.071Z,2.09
2018-01-18T10:00:40.333Z,2.01
2018-01-18T10:01:40.043Z,2.06
2018-01-18T10:02:40.019Z,2.06
2018-01-18T10:03:40.272Z,2.02
2018-01-18T10:04:39.985Z,2.09
2018-01-18T10:05:40.237Z,2.05
2018-01-18T10:06:39.970Z,2.05
2018-01-18T10:07:40.373Z,2.11
2018-01-18T10:08:39.916Z,2.23
2018-01-18T10:09:39.907Z,2.26
2018-01-18T10:10:40.156Z,2.3
2018-01-18T10:11:40.135Z,2.41
2018-01-18T10:12:40.118Z,2.47
2018-01-18T10:13:39.830Z,2.51
2018-01-18T10:14:39.833Z,2.52
2018-01-18T10:15:40.069Z,2.59
2018-01-18T10:16:40.057Z,2.52
2018-01-18T10:17:39.763Z,2.59
2018-01-18T10:18:39.753Z,2.62
2018-01-18T10:19:39.741Z,2.55
2018-01-18T10:20:39.985Z,2.58
2018-01-18T10:21:39.698Z,2.55
2018-01-18T10:22:40.222Z,2.59
2018-01-18T10:23:39.660Z,2.51
2018-01-18T10:24:39.925Z,2.55
2018-01-18T10:25:39.627Z,2.63
2018-01-18T10:26:39.879Z,2.63
2018-01-18T10:27:39.595Z,2.63
2018-01-18T10:28:40.148Z,2.59
2018-01-18T10:29:39.563Z,2.7
2018-01-18T10:30:40.063Z,2.62
2018-01-18T10:31:39.524Z,2.58
2018-01-18T10:32:39.782Z,2.59
2018-01-18T10:33:39.491Z,2.6
2018-01-18T10:34:39.475Z,2.52
2018-01-18T10:35:39.469Z,2.52
2018-01-18T10:36:39.713Z,2.59
2018-01-18T10:37:39.438Z,2.55
2018-01-18T10:38:39.409Z,2.58
2018-01-18T10:39:39.661Z,2.54
2018-01-18T10:40:39.375Z,2.52
2018-01-18T10:41:39.629Z,2.62
2018-01-18T10:42:39.355Z,2.55
2018-01-18T10:43:39.324Z,2.4
2018-01-18T10:44:39.339Z,2.54
2018-01-18T10:45:39.561Z,2.62
2018-01-18T10:46:39.292Z,2.67
2018-01-18T10:47:39.529Z,2.78
2018-01-18T10:48:39.237Z,2.73
2018-01-18T10:49:39.491Z,2.72
2018-01-18T10:50:39.429Z,2.81
2018-01-18T10:51:39.460Z,2.84
2018-01-18T10:52:39.172Z,2.88
2018-01-18T10:53:39.447Z,2.83
2018-01-18T10:54:39.137Z,2.8
2018-01-18T10:55:39.178Z,2.67
2018-01-18T10:56:39.422Z,2.72
2018-01-18T10:57:39.086Z,2.76
2018-01-18T10:58:39.343Z,2.8
2018-01-18T10:59:39.347Z,2.83
2018-01-18T11:00:39.621Z,2.81
2018-01-18T11:01:39.582Z,2.83
2018-01-18T11:02:39.290Z,2.83
2018-01-18T11:03:38.989Z,2.76
2018-01-18T11:04:39.242Z,2.81
2018-01-18T11:05:38.954Z,2.81
2018-01-18T11:06:38.938Z,2.88
2018-01-18T11:07:39.191Z,2.95
2018-01-18T11:08:38.922Z,2.96
2018-01-18T11:09:38.890Z,2.85
2018-01-18T11:10:39.193Z,2.99
2018-01-18T11:11:40.273Z,2.91
2018-01-18T11:12:39.112Z,2.9
2018-01-18T11:13:38.824Z,2.87
2018-01-18T11:14:38.810Z,2.91
2018-01-18T11:15:38.795Z,2.9
2018-01-18T11:16:39.068Z,2.88
2018-01-18T11:17:38.763Z,2.84
2018-01-18T11:18:39.009Z,2.91
2018-01-18T11:19:39.282Z,2.96
2018-01-18T11:20:39.254Z,2.91
2018-01-18T11:21:38.690Z,2.98
2018-01-18T11:22:38.968Z,2.88
2018-01-18T11:23:38.931Z,2.78
2018-01-18T11:24:38.914Z,2.84
2018-01-18T11:25:38.908Z,2.78
2018-01-18T11:26:38.903Z,2.83
2018-01-18T11:27:38.867Z,2.84
2018-01-18T11:28:38.848Z,2.91
2018-01-18T11:29:38.573Z,2.9
2018-01-18T11:30:38.816Z,2.9
2018-01-18T11:31:38.800Z,2.87
2018-01-18T11:32:38.781Z,2.99
2018-01-18T11:33:38.494Z,2.95
2018-01-18T11:34:51.210Z,2.9
2018-01-18T11:35:38.460Z,2.9
2018-01-18T11:36:38.442Z,2.91
2018-01-18T11:37:38.978Z,2.81
2018-01-18T11:38:38.676Z,2.81
2018-01-18T11:39:38.958Z,2.85
2018-01-18T11:40:38.647Z,2.81
2018-01-18T11:41:38.360Z,2.88
2018-01-18T11:42:38.884Z,2.87
2018-01-18T11:43:38.607Z,2.84
2018-01-18T11:44:38.317Z,2.84
2018-01-18T11:45:38.292Z,2.84
2018-01-18T11:46:38.341Z,2.77
2018-01-18T11:47:38.539Z,2.83
2018-01-18T11:48:38.516Z,2.83
2018-01-18T11:49:38.541Z,2.81
2018-01-18T11:50:38.213Z,2.78
2018-01-18T11:51:38.463Z,2.8
2018-01-18T11:52:38.456Z,2.81
2018-01-18T11:53:38.162Z,2.85
2018-01-18T11:54:38.155Z,2.88
2018-01-18T11:55:38.398Z,2.9
2018-01-18T11:56:38.380Z,2.88
2018-01-18T11:57:38.095Z,2.9
2018-01-18T11:58:38.639Z,2.98
2018-01-18T11:59:38.060Z,2.93
2018-01-18T12:00:38.047Z,2.91
2018-01-18T12:01:38.318Z,2.88
2018-01-18T12:02:38.281Z,2.85
2018-01-18T12:03:38.562Z,2.95
2018-01-18T12:04:38.252Z,2.9
2018-01-18T12:05:38.245Z,2.88
2018-01-18T12:06:38.214Z,2.9
2018-01-18T12:07:37.928Z,2.91
2018-01-18T12:08:37.914Z,2.96
2018-01-18T12:09:38.208Z,2.95
2018-01-18T12:10:37.877Z,3.03
2018-01-18T12:11:38.403Z,3.13
2018-01-18T12:12:37.871Z,3.13
2018-01-18T12:13:37.866Z,3.14
2018-01-18T12:14:37.814Z,3.14
2018-01-18T12:15:38.117Z,3.14
2018-01-18T12:16:37.796Z,3.08
2018-01-18T12:17:38.036Z,3.11
2018-01-18T12:18:37.746Z,3.17
2018-01-18T12:19:37.730Z,3.21
2018-01-18T12:20:37.988Z,3.21
2018-01-18T12:21:37.969Z,3.19
2018-01-18T12:22:37.685Z,3.37
2018-01-18T12:23:37.943Z,3.34
2018-01-18T12:24:37.646Z,3.42
2018-01-18T12:25:38.172Z,3.37
2018-01-18T12:26:37.892Z,3.48
2018-01-18T12:27:37.868Z,3.4
2018-01-18T12:28:37.579Z,3.34
2018-01-18T12:29:37.840Z,3.3
2018-01-18T12:30:37.837Z,3.3
2018-01-18T12:31:37.541Z,3.39
2018-01-18T12:32:37.789Z,3.3
2018-01-18T12:33:38.077Z,3.3
2018-01-18T12:34:37.484Z,3.45
2018-01-18T12:35:37.471Z,3.54
2018-01-18T12:36:37.735Z,3.61
2018-01-18T12:37:37.714Z,3.6
2018-01-18T12:38:37.421Z,3.72
2018-01-18T12:39:37.671Z,3.76
2018-01-18T12:40:37.929Z,3.78
2018-01-18T12:41:37.909Z,3.76
2018-01-18T12:42:37.353Z,3.64
2018-01-18T12:43:37.342Z,3.75
2018-01-18T12:44:37.597Z,3.64
2018-01-18T12:45:37.306Z,3.67
2018-01-18T12:46:37.294Z,3.72
2018-01-18T12:47:37.545Z,3.74
2018-01-18T12:48:37.528Z,3.64
2018-01-18T12:49:37.241Z,3.85
2018-01-18T12:50:37.765Z,3.79
2018-01-18T12:51:37.761Z,3.85
2018-01-18T12:52:37.193Z,3.85
2018-01-18T12:53:37.454Z,3.86
2018-01-18T12:54:37.162Z,3.92
2018-01-18T12:55:37.146Z,3.93
2018-01-18T12:56:37.409Z,3.99
2018-01-18T12:57:37.381Z,3.97
2018-01-18T12:58:37.100Z,4
2018-01-18T12:59:37.353Z,3.89
2018-01-18T13:00:37.622Z,3.96
2018-01-18T13:01:37.319Z,3.96
2018-01-18T13:02:37.309Z,4.02
2018-01-18T13:03:37.629Z,3.94
2018-01-18T13:04:37.475Z,3.97
2018-01-18T13:05:37.525Z,4.02
2018-01-18T13:06:36.971Z,4
2018-01-18T13:07:36.963Z,3.97
2018-01-18T13:08:36.960Z,3.96
2018-01-18T13:09:36.921Z,4.08
2018-01-18T13:10:37.468Z,4.04
2018-01-18T13:11:36.891Z,3.92
2018-01-18T13:12:36.877Z,3.94
2018-01-18T13:13:36.865Z,3.97
2018-01-18T13:14:37.117Z,3.81
2018-01-18T13:15:36.833Z,3.84